Terminal Aerodrome Forecast
Issued by NWS Sioux Falls, SD

Home | Current Version | Previous Version | Text Only | Print | Product List | Glossary Off
Versions: 1 2 3 4 5 6 7 8 9 10 11 12 13

000
FTUS43 KFSD 281130
TAFHON
TAF
KHON 281130Z 2812/0112 16013KT P6SM SCT250
     FM281500 19013G19KT P6SM SCT040
     FM010000 23006KT P6SM SCT040
     FM010400 31005KT P6SM SCT040=

USA.gov is the U.S. government's official web portal to all federal, state and local government web resources and services.